首页
METAR-TAF:

METAR-TAF

机场 :

路克空軍基地

格蘭岱爾, 亞利桑那州, 美国

纬度: 33-32N, 经度: 112-23W, 海拔: 332米

当前天气观测

该预报发布于1小时和17分钟前的03:58 UTC
风速8节,风向西南
温度 38°C
湿度 19%
气压 1006 hPa
能見度: 16.1公里
天空无云

METAR: KLUF 170358Z AUTO 23008KT 10SM CLR 38/10 A2971 RMK AO2 SLPNO T03840098

时间: 22:15 (05:15 UTC)

预报

该预报发布于1小时和12分钟前的04:03 UTC
预报有效从17日的 04点(UTC)到 18日的 10点(UTC)
风速9节,风向西南
能见度10公里或以上
天空无云
成为
从 17日的 05点(UTC)到 17日的 06点(UTC)
风速6节,风向多变
能见度10公里或以上
少量云层高于12000英尺
成为
从 17日的 17点(UTC)到 17日的 18点(UTC)
风速12节,风向南转西南,有时为18节阵风
能见度10公里或以上
多云层高于10000英尺
成为
从 18日的 02点(UTC)到 18日的 03点(UTC)
风速9节,风向西南
能见度10公里或以上
少量云层高于12000英尺
成为
从 18日的 06点(UTC)到 18日的 07点(UTC)
风速6节,风向多变
能见度10公里或以上
散云层高于10000英尺

TAF: KLUF 170403Z 1704/1810 23009KT 9999 SKC QNH2969INS BECMG 1705/1706 VRB06KT 9999 FEW120 QNH2976INS BECMG 1717/1718 20012G18KT 9999 BKN100 QNH2973INS BECMG 1802/1803 22009KT 9999 FEW120 QNH2976INS BECMG 1806/1807 VRB06KT 9999 SCT100 QNH2987INS TX43/1721Z TN29/1712Z

超过4000个机场的气象观测和天气预报(METAR&TAF报告)。

可查询的气象台以黄色和红色小点在地图上表示。

将鼠标移到小点上方,可查看气象台名称。

然后点击查看天气观测和预报。

如需切换地图:点击带黑十字的绿色按钮放大地图;点击带横线的绿色按钮缩小地图;或者点击绿色箭头查看邻近地区的地图。


METAR-TAF: